createdAt,value
2022-08-11T00:02:30.432Z,3.10
2022-08-11T00:04:59.237Z,2.67
2022-08-11T00:07:28.266Z,2.80
2022-08-11T00:09:57.064Z,5.80
2022-08-11T00:12:25.427Z,2.63
2022-08-11T00:15:09.414Z,3.00
2022-08-11T00:17:37.935Z,2.87
2022-08-11T00:20:15.153Z,3.10
2022-08-11T00:22:47.155Z,3.00
2022-08-11T00:25:17.534Z,3.00
2022-08-11T00:27:46.015Z,2.70
2022-08-11T00:30:16.744Z,3.13
2022-08-11T00:32:46.016Z,2.90
2022-08-11T00:35:51.228Z,3.60
2022-08-11T00:38:06.382Z,2.90
2022-08-11T00:40:39.238Z,3.00
2022-08-11T00:43:20.245Z,3.27
2022-08-11T00:46:06.334Z,2.80
2022-08-11T00:48:39.015Z,3.07
2022-08-11T00:51:12.786Z,2.90
2022-08-11T00:53:48.375Z,2.90
2022-08-11T00:56:58.682Z,3.60
2022-08-11T00:59:48.999Z,3.17
2022-08-11T01:02:21.191Z,3.07
2022-08-11T01:05:15.669Z,3.43
2022-08-11T01:08:18.589Z,3.07
2022-08-11T01:11:22.349Z,3.30
2022-08-11T01:14:34.246Z,3.07
2022-08-11T01:17:23.962Z,2.67
2022-08-11T01:20:46.745Z,4.63
2022-08-11T01:23:43.809Z,2.90
2022-08-11T01:26:40.999Z,3.77
2022-08-11T01:29:49.435Z,3.37
2022-08-11T01:32:42.480Z,3.17
2022-08-11T01:35:37.396Z,2.97
2022-08-11T01:38:36.555Z,3.07
2022-08-11T01:41:48.435Z,3.40
2022-08-11T01:44:49.676Z,3.07
2022-08-11T01:47:41.171Z,2.70
2022-08-11T01:50:52.755Z,3.33
2022-08-11T01:53:30.018Z,2.90
2022-08-11T01:56:09.081Z,3.53
2022-08-11T01:58:44.186Z,3.23
2022-08-11T02:01:29.855Z,3.33
2022-08-11T02:04:08.265Z,2.83
2022-08-11T02:06:55.809Z,2.97
2022-08-11T02:09:35.460Z,2.53
2022-08-11T02:12:12.384Z,3.27
2022-08-11T02:15:04.428Z,2.87
2022-08-11T02:17:54.788Z,3.40
2022-08-11T02:20:43.835Z,3.27
2022-08-11T02:24:05.462Z,3.40
2022-08-11T02:26:36.318Z,3.20
2022-08-11T02:29:13.075Z,3.10
2022-08-11T02:32:28.661Z,3.20
2022-08-11T02:35:03.896Z,3.97
2022-08-11T02:37:43.776Z,3.23
2022-08-11T02:40:21.816Z,2.80
2022-08-11T02:43:10.394Z,3.20
2022-08-11T02:45:54.904Z,3.00
2022-08-11T02:48:56.155Z,3.07
2022-08-11T02:51:31.246Z,3.83
2022-08-11T02:54:07.430Z,3.33
2022-08-11T02:56:45.058Z,4.17
2022-08-11T02:59:46.666Z,3.70
2022-08-11T03:02:20.615Z,3.33
2022-08-11T03:05:02.065Z,3.93
2022-08-11T03:07:35.211Z,3.87
2022-08-11T03:10:10.088Z,3.60
2022-08-11T03:13:05.915Z,3.60
2022-08-11T03:16:03.305Z,3.60
2022-08-11T03:18:36.394Z,4.47
2022-08-11T03:21:09.266Z,3.70
2022-08-11T03:23:41.296Z,3.60
2022-08-11T03:26:19.656Z,3.70
2022-08-11T03:28:57.151Z,3.87
2022-08-11T03:31:27.946Z,3.80
2022-08-11T03:34:06.605Z,3.80
2022-08-11T03:37:17.291Z,3.60
2022-08-11T03:39:58.902Z,4.20
2022-08-11T03:42:30.330Z,4.67
2022-08-11T03:45:07.166Z,4.00
2022-08-11T03:48:14.119Z,3.73
2022-08-11T03:51:08.297Z,4.13
2022-08-11T03:54:09.676Z,4.27
2022-08-11T03:57:10.818Z,4.20
2022-08-11T04:00:12.495Z,4.50
2022-08-11T04:03:10.089Z,4.80
2022-08-11T04:06:03.665Z,4.30
2022-08-11T04:08:57.055Z,4.87
2022-08-11T04:11:52.936Z,4.60
2022-08-11T04:15:01.527Z,4.27
2022-08-11T04:17:58.135Z,4.83
2022-08-11T04:21:14.036Z,4.70
2022-08-11T04:24:36.334Z,4.90
2022-08-11T04:27:37.599Z,4.53
2022-08-11T04:30:11.947Z,4.53
2022-08-11T04:33:35.035Z,4.60
2022-08-11T04:36:14.219Z,3.77
2022-08-11T04:39:00.245Z,4.63
2022-08-11T04:42:21.923Z,4.93
2022-08-11T04:45:41.026Z,3.97
2022-08-11T04:48:43.701Z,4.40
2022-08-11T04:51:47.376Z,4.80
2022-08-11T04:54:43.684Z,4.40
2022-08-11T04:57:36.577Z,3.93
2022-08-11T05:00:25.736Z,3.83
2022-08-11T05:03:38.099Z,4.37
2022-08-11T05:06:48.264Z,4.03
2022-08-11T05:09:30.105Z,4.10
2022-08-11T05:12:09.703Z,3.67
2022-08-11T05:15:00.378Z,4.27
2022-08-11T05:17:55.767Z,4.03
2022-08-11T05:20:44.158Z,4.10
2022-08-11T05:23:30.254Z,4.10
2022-08-11T05:26:47.373Z,3.73
2022-08-11T05:29:45.057Z,4.93
2022-08-11T05:32:33.874Z,4.97
2022-08-11T05:35:05.198Z,4.03
2022-08-11T05:37:38.326Z,4.23
2022-08-11T05:40:26.875Z,4.10
2022-08-11T05:43:17.425Z,4.10
2022-08-11T05:46:07.198Z,4.60
2022-08-11T05:48:55.130Z,4.40
2022-08-11T05:51:52.347Z,4.20
2022-08-11T05:54:42.385Z,4.50
2022-08-11T05:57:39.629Z,5.10
2022-08-11T06:00:03.424Z,4.10
2022-08-11T06:02:31.895Z,3.87
2022-08-11T06:05:01.835Z,4.40
2022-08-11T06:07:49.138Z,4.13
2022-08-11T06:10:27.427Z,4.03
2022-08-11T06:12:57.050Z,3.97
2022-08-11T06:15:27.247Z,4.33
2022-08-11T06:17:56.829Z,4.13
2022-08-11T06:20:25.801Z,3.80
2022-08-11T06:22:59.544Z,3.80
2022-08-11T06:25:32.195Z,4.00
2022-08-11T06:28:01.095Z,4.13
2022-08-11T06:30:40.978Z,3.97
2022-08-11T06:33:11.346Z,3.70
2022-08-11T06:35:48.696Z,4.13
2022-08-11T06:38:24.543Z,3.87
2022-08-11T06:41:09.115Z,3.60
2022-08-11T06:43:55.847Z,3.77
2022-08-11T06:46:29.396Z,3.70
2022-08-11T06:48:57.594Z,3.93
2022-08-11T06:51:24.964Z,3.50
2022-08-11T06:54:04.788Z,3.77
2022-08-11T06:57:12.125Z,3.67
2022-08-11T07:00:00.414Z,3.40
2022-08-11T07:02:34.099Z,3.47
2022-08-11T07:05:04.685Z,3.50
2022-08-11T07:08:34.419Z,3.30
2022-08-11T07:11:34.615Z,3.70
2022-08-11T07:14:21.673Z,3.40
2022-08-11T07:16:51.446Z,3.60
2022-08-11T07:19:42.626Z,3.57
2022-08-11T07:22:29.154Z,3.00
2022-08-11T07:25:17.877Z,3.13
2022-08-11T07:28:06.714Z,3.50
2022-08-11T07:30:39.986Z,3.17
2022-08-11T07:33:08.775Z,3.23
2022-08-11T07:35:43.657Z,3.20
2022-08-11T07:38:22.686Z,3.70
2022-08-11T07:40:54.239Z,3.57
2022-08-11T07:43:22.537Z,3.70
2022-08-11T07:46:04.930Z,3.40
2022-08-11T07:48:52.152Z,3.13
2022-08-11T07:51:39.304Z,3.57
2022-08-11T07:54:17.145Z,3.50
2022-08-11T07:56:55.223Z,3.57
2022-08-11T07:59:59.841Z,3.37
2022-08-11T08:02:47.029Z,3.40
2022-08-11T08:05:33.569Z,3.27
2022-08-11T08:08:21.242Z,3.20
2022-08-11T08:11:07.542Z,3.07
2022-08-11T08:13:54.469Z,3.00
2022-08-11T08:16:40.224Z,2.83
2022-08-11T08:19:08.594Z,3.20
2022-08-11T08:21:36.605Z,3.20
2022-08-11T08:24:08.345Z,2.80
2022-08-11T08:26:56.465Z,3.00
2022-08-11T08:29:41.997Z,2.93
2022-08-11T08:32:11.315Z,2.43
2022-08-11T08:34:40.376Z,3.10
2022-08-11T08:37:16.236Z,2.80
2022-08-11T08:39:59.469Z,2.83
2022-08-11T08:42:29.706Z,2.70
2022-08-11T08:45:00.456Z,3.00
2022-08-11T08:47:42.886Z,2.80
2022-08-11T08:50:16.279Z,2.80
2022-08-11T08:52:49.381Z,3.03
2022-08-11T08:55:20.775Z,2.97
2022-08-11T08:57:51.425Z,3.20
2022-08-11T09:00:23.631Z,2.80
2022-08-11T09:02:52.924Z,2.80
2022-08-11T09:05:21.565Z,2.70
2022-08-11T09:07:53.358Z,2.73
2022-08-11T09:10:23.125Z,3.10
2022-08-11T09:12:56.775Z,3.30
2022-08-11T09:15:26.252Z,2.67
2022-08-11T09:18:03.862Z,2.70
2022-08-11T09:20:34.632Z,2.70
2022-08-11T09:24:06.738Z,2.40
2022-08-11T09:26:30.773Z,2.40
2022-08-11T09:28:59.635Z,2.47
2022-08-11T09:31:29.035Z,2.77
2022-08-11T09:33:57.153Z,2.63
2022-08-11T09:36:42.765Z,2.33
2022-08-11T09:39:31.056Z,2.60
2022-08-11T09:42:03.294Z,2.43
2022-08-11T09:44:53.294Z,3.00
2022-08-11T09:47:25.077Z,2.77
2022-08-11T09:50:00.340Z,2.67
2022-08-11T09:52:31.115Z,2.67
2022-08-11T09:54:59.384Z,2.70
2022-08-11T09:57:46.542Z,2.43
2022-08-11T10:00:16.397Z,2.50
2022-08-11T10:02:45.932Z,2.57
2022-08-11T10:05:34.137Z,2.60
2022-08-11T10:08:02.384Z,2.60
2022-08-11T10:10:31.166Z,2.63
2022-08-11T10:13:05.530Z,2.63
2022-08-11T10:16:00.039Z,3.17
2022-08-11T10:18:49.396Z,2.60
2022-08-11T10:21:28.466Z,2.10
2022-08-11T10:24:15.265Z,2.40
2022-08-11T10:26:54.419Z,2.30
2022-08-11T10:29:45.128Z,2.20
2022-08-11T10:32:49.290Z,2.37
2022-08-11T10:35:28.067Z,2.30
2022-08-11T10:38:06.895Z,2.43
2022-08-11T10:41:08.885Z,2.40
2022-08-11T10:44:02.672Z,2.27
2022-08-11T10:46:45.524Z,2.87
2022-08-11T10:49:13.713Z,1.83
2022-08-11T10:51:59.246Z,2.03
2022-08-11T10:54:44.747Z,2.03
2022-08-11T10:57:30.945Z,1.83
2022-08-11T10:59:59.336Z,2.57
2022-08-11T11:02:29.622Z,2.40
2022-08-11T11:05:04.524Z,2.03
2022-08-11T11:07:44.097Z,2.03
2022-08-11T11:10:12.824Z,2.00
2022-08-11T11:13:01.006Z,1.70
2022-08-11T11:15:49.165Z,2.00
2022-08-11T11:18:21.424Z,2.40
2022-08-11T11:20:54.805Z,1.77
2022-08-11T11:23:27.026Z,2.13
2022-08-11T11:26:15.065Z,1.90
2022-08-11T11:28:54.888Z,2.20
2022-08-11T11:31:33.102Z,2.07
2022-08-11T11:34:14.363Z,2.20
2022-08-11T11:36:47.282Z,1.67
2022-08-11T11:39:21.705Z,1.80
2022-08-11T11:41:50.635Z,1.73
2022-08-11T11:44:18.993Z,1.80
2022-08-11T11:46:47.325Z,2.20
2022-08-11T11:51:53.858Z,1.87
2022-08-11T11:54:27.528Z,2.07
2022-08-11T11:56:56.645Z,2.00
2022-08-11T11:59:44.450Z,1.83
2022-08-11T12:02:14.942Z,1.90
2022-08-11T12:04:46.136Z,1.73
2022-08-11T12:07:31.434Z,1.80
2022-08-11T12:09:59.958Z,1.63
2022-08-11T12:12:45.896Z,1.57
2022-08-11T12:15:14.134Z,1.40
2022-08-11T12:17:42.345Z,2.20
2022-08-11T12:20:32.146Z,1.77
2022-08-11T12:23:20.033Z,1.90
2022-08-11T12:26:25.914Z,1.73
2022-08-11T12:28:53.904Z,1.90
2022-08-11T12:31:22.229Z,1.77
2022-08-11T12:33:50.547Z,2.03
2022-08-11T12:36:20.814Z,1.63
2022-08-11T12:38:51.557Z,1.90
2022-08-11T12:41:37.976Z,2.00
2022-08-11T12:44:25.300Z,1.77
2022-08-11T12:46:53.624Z,1.57
2022-08-11T12:49:44.759Z,1.67
2022-08-11T12:52:20.565Z,1.83
2022-08-11T12:55:00.226Z,1.90
2022-08-11T12:57:50.225Z,2.00
2022-08-11T13:00:36.623Z,1.60
2022-08-11T13:03:23.226Z,1.87
2022-08-11T13:05:53.844Z,2.23
2022-08-11T13:08:25.155Z,2.23
2022-08-11T13:11:12.347Z,2.00
2022-08-11T13:13:54.418Z,2.20
2022-08-11T13:16:25.917Z,1.80
2022-08-11T13:18:54.024Z,1.97
2022-08-11T13:21:23.005Z,1.93
2022-08-11T13:24:00.349Z,2.30
2022-08-11T13:26:46.905Z,1.80
2022-08-11T13:29:22.614Z,1.90
2022-08-11T13:31:51.506Z,1.90
2022-08-11T13:34:20.862Z,1.97
2022-08-11T13:36:52.530Z,2.43
2022-08-11T13:39:24.248Z,2.10
2022-08-11T13:41:54.209Z,1.97
2022-08-11T13:44:25.894Z,1.70
2022-08-11T13:46:55.405Z,1.93
2022-08-11T13:49:23.625Z,2.60
2022-08-11T13:51:51.999Z,1.90
2022-08-11T13:54:23.265Z,4.13
2022-08-11T13:56:54.723Z,2.10
2022-08-11T13:59:30.008Z,1.70
2022-08-11T14:02:27.945Z,1.83
2022-08-11T14:04:55.646Z,2.00
2022-08-11T14:07:25.975Z,1.80
2022-08-11T14:09:59.268Z,1.87
2022-08-11T14:12:47.071Z,2.20
2022-08-11T14:15:20.084Z,1.73
2022-08-11T14:17:51.795Z,2.00
2022-08-11T14:20:39.304Z,2.13
2022-08-11T14:23:08.473Z,2.60
2022-08-11T14:26:00.974Z,2.30
2022-08-11T14:28:35.190Z,1.60
2022-08-11T14:31:05.486Z,1.80
2022-08-11T14:34:01.040Z,2.07
2022-08-11T14:36:23.255Z,1.87
2022-08-11T14:38:51.595Z,1.87
2022-08-11T14:42:11.437Z,2.50
2022-08-11T14:44:51.944Z,3.20
2022-08-11T14:47:24.606Z,2.03
2022-08-11T14:50:04.968Z,4.10
2022-08-11T14:52:41.206Z,2.50
2022-08-11T14:55:27.888Z,1.90
2022-08-11T14:57:57.681Z,1.80
2022-08-11T15:00:26.601Z,1.97
2022-08-11T15:03:13.681Z,1.93
2022-08-11T15:05:55.835Z,1.90
2022-08-11T15:08:48.500Z,1.77
2022-08-11T15:11:35.832Z,1.47
2022-08-11T15:14:07.661Z,1.80
2022-08-11T15:16:53.870Z,1.80
2022-08-11T15:19:22.198Z,2.20
2022-08-11T15:22:08.066Z,1.87
2022-08-11T15:24:36.719Z,1.90
2022-08-11T15:27:24.428Z,2.33
2022-08-11T15:30:20.963Z,2.50
2022-08-11T15:33:22.291Z,2.30
2022-08-11T15:36:08.438Z,1.90
2022-08-11T15:38:37.231Z,2.30
2022-08-11T15:41:31.670Z,2.37
2022-08-11T15:44:17.352Z,2.40
2022-08-11T15:46:49.440Z,2.60
2022-08-11T15:49:24.417Z,2.13
2022-08-11T15:52:15.417Z,2.40
2022-08-11T15:54:44.488Z,2.10
2022-08-11T15:57:39.716Z,2.40
2022-08-11T16:00:38.919Z,2.63
2022-08-11T16:03:54.468Z,2.60
2022-08-11T16:06:15.168Z,2.60
2022-08-11T16:08:46.111Z,2.20
2022-08-11T16:11:14.839Z,2.93
2022-08-11T16:14:01.238Z,2.50
2022-08-11T16:16:31.645Z,2.10
2022-08-11T16:19:01.660Z,2.43
2022-08-11T16:21:37.402Z,2.20
2022-08-11T16:26:30.343Z,2.37
2022-08-11T16:27:10.605Z,2.13
2022-08-11T16:29:43.786Z,1.70
2022-08-11T16:32:18.892Z,1.93
2022-08-11T16:35:09.504Z,2.43
2022-08-11T16:37:55.799Z,2.40
2022-08-11T16:40:24.625Z,3.07
2022-08-11T16:43:11.892Z,2.13
2022-08-11T16:45:58.780Z,2.33
2022-08-11T16:48:35.805Z,2.40
2022-08-11T16:51:08.131Z,2.67
2022-08-11T16:53:59.779Z,2.53
2022-08-11T16:56:29.637Z,2.43
2022-08-11T16:59:16.998Z,3.57
2022-08-11T17:01:49.738Z,1.93
2022-08-11T17:04:39.489Z,2.20
2022-08-11T17:07:41.721Z,2.10
2022-08-11T17:10:50.950Z,2.57
2022-08-11T17:13:23.158Z,2.60
2022-08-11T17:16:08.764Z,2.30
2022-08-11T17:18:43.474Z,2.20
2022-08-11T17:21:15.585Z,2.17
2022-08-11T17:23:47.578Z,2.23
2022-08-11T17:26:18.682Z,2.30
2022-08-11T17:28:51.526Z,2.40
2022-08-11T17:31:38.958Z,2.73
2022-08-11T17:34:25.857Z,2.60
2022-08-11T17:36:55.628Z,2.87
2022-08-11T17:39:30.350Z,2.60
2022-08-11T17:42:17.078Z,2.77
2022-08-11T17:45:03.209Z,2.50
2022-08-11T17:47:49.507Z,2.77
2022-08-11T17:50:18.493Z,2.70
2022-08-11T17:53:05.909Z,2.23
2022-08-11T17:55:54.221Z,2.63
2022-08-11T17:58:40.777Z,2.87
2022-08-11T18:01:11.106Z,2.50
2022-08-11T18:03:40.749Z,3.17
2022-08-11T18:06:12.468Z,2.57
2022-08-11T18:09:00.587Z,2.30
2022-08-11T18:12:10.544Z,2.23
2022-08-11T18:14:56.501Z,2.67
2022-08-11T18:17:42.059Z,2.57
2022-08-11T18:20:28.188Z,2.40
2022-08-11T18:23:14.978Z,2.60
2022-08-11T18:26:07.066Z,2.80
2022-08-11T18:29:01.247Z,2.70
2022-08-11T18:31:47.752Z,2.80
2022-08-11T18:34:35.269Z,3.50
2022-08-11T18:37:27.166Z,2.70
2022-08-11T18:40:17.495Z,3.07
2022-08-11T18:43:05.149Z,2.67
2022-08-11T18:46:06.475Z,2.70
2022-08-11T18:48:54.150Z,2.70
2022-08-11T18:51:40.308Z,2.30
2022-08-11T18:54:28.507Z,3.63
2022-08-11T18:57:16.029Z,2.90
2022-08-11T19:00:03.073Z,2.90
2022-08-11T19:02:51.635Z,2.90
2022-08-11T19:06:32.060Z,2.60
2022-08-11T19:08:47.382Z,2.50
2022-08-11T19:11:32.907Z,2.60
2022-08-11T19:14:19.977Z,2.77
2022-08-11T19:17:06.188Z,2.43
2022-08-11T19:19:54.531Z,3.70
2022-08-11T19:22:41.669Z,2.33
2022-08-11T19:25:27.789Z,2.93
2022-08-11T19:28:16.732Z,2.70
2022-08-11T19:31:02.349Z,2.60
2022-08-11T19:33:59.784Z,2.47
2022-08-11T19:36:50.739Z,2.67
2022-08-11T19:39:38.457Z,2.33
2022-08-11T19:42:26.458Z,2.57
2022-08-11T19:45:12.479Z,2.80
2022-08-11T19:48:28.155Z,2.70
2022-08-11T19:51:04.887Z,3.07
2022-08-11T19:53:52.159Z,2.53
2022-08-11T19:56:37.682Z,2.43
2022-08-11T19:59:23.810Z,2.57
2022-08-11T20:02:14.059Z,2.70
2022-08-11T20:05:00.495Z,2.50
2022-08-11T20:07:46.574Z,3.37
2022-08-11T20:10:36.482Z,3.33
2022-08-11T20:13:22.529Z,3.10
2022-08-11T20:16:13.130Z,2.83
2022-08-11T20:19:00.063Z,2.60
2022-08-11T20:21:46.100Z,2.20
2022-08-11T20:24:33.393Z,2.40
2022-08-11T20:27:24.514Z,2.67
2022-08-11T20:30:11.649Z,3.00
2022-08-11T20:32:58.377Z,2.30
2022-08-11T20:35:44.980Z,2.70
2022-08-11T20:38:30.840Z,2.53
2022-08-11T20:41:16.940Z,2.80
2022-08-11T20:44:06.909Z,2.47
2022-08-11T20:46:54.881Z,2.27
2022-08-11T20:49:48.759Z,2.90
2022-08-11T20:52:40.538Z,2.67
2022-08-11T20:59:01.004Z,2.70
2022-08-11T21:01:42.201Z,2.77
2022-08-11T21:04:28.162Z,2.53
2022-08-11T21:07:15.231Z,2.90
2022-08-11T21:10:22.926Z,3.20
2022-08-11T21:13:26.011Z,2.97
2022-08-11T21:16:25.113Z,3.00
2022-08-11T21:19:16.432Z,2.60
2022-08-11T21:22:03.709Z,2.23
2022-08-11T21:24:51.171Z,2.53
2022-08-11T21:27:37.402Z,2.90
2022-08-11T21:30:24.131Z,2.47
2022-08-11T21:33:10.827Z,2.50
2022-08-11T21:35:58.040Z,2.27
2022-08-11T21:38:44.132Z,2.50
2022-08-11T21:41:30.211Z,2.50
2022-08-11T21:44:16.329Z,2.40
2022-08-11T21:47:03.348Z,2.60
2022-08-11T21:49:49.960Z,2.30
2022-08-11T21:52:37.396Z,2.30
2022-08-11T21:55:23.380Z,2.67
2022-08-11T21:58:09.501Z,2.47
2022-08-11T22:00:56.168Z,2.73
2022-08-11T22:03:49.469Z,2.70
2022-08-11T22:06:36.050Z,2.90
2022-08-11T22:09:23.220Z,2.67
2022-08-11T22:12:34.062Z,2.37
2022-08-11T22:15:15.312Z,2.33
2022-08-11T22:18:01.942Z,2.70
2022-08-11T22:20:48.580Z,2.70
2022-08-11T22:23:36.974Z,2.50
2022-08-11T22:26:24.436Z,2.37
2022-08-11T22:29:10.538Z,2.60
2022-08-11T22:31:56.833Z,2.77
2022-08-11T22:34:53.012Z,2.70
2022-08-11T22:37:39.796Z,2.33
2022-08-11T22:40:27.263Z,2.23
2022-08-11T22:43:14.439Z,2.60
2022-08-11T22:46:00.265Z,2.20
2022-08-11T22:48:47.991Z,2.43
2022-08-11T22:51:34.562Z,2.67
2022-08-11T22:54:21.292Z,2.50
2022-08-11T22:57:07.394Z,2.87
2022-08-11T22:59:54.992Z,2.47
2022-08-11T23:02:40.682Z,2.43
2022-08-11T23:05:27.553Z,2.83
2022-08-11T23:08:13.040Z,2.60
2022-08-11T23:10:59.301Z,2.67
2022-08-11T23:13:45.330Z,2.70
2022-08-11T23:16:32.378Z,2.53
2022-08-11T23:20:09.125Z,2.50
2022-08-11T23:22:24.081Z,2.60
2022-08-11T23:25:29.365Z,2.60
2022-08-11T23:28:16.510Z,2.63
2022-08-11T23:31:02.332Z,2.70
2022-08-11T23:33:49.831Z,2.23
2022-08-11T23:36:36.647Z,2.77
2022-08-11T23:39:33.128Z,2.33
2022-08-11T23:42:18.840Z,2.60
2022-08-11T23:45:09.559Z,2.63
2022-08-11T23:47:57.662Z,2.57
2022-08-11T23:50:44.871Z,2.47
2022-08-11T23:53:31.930Z,2.70
2022-08-11T23:56:21.942Z,3.07
2022-08-11T23:59:08.742Z,2.60
